Time;durP1;ratioP1;P1;durP2;ratioP2;P2;SDS_P1;SDS_P2;PMS_P1;PMS_P2;Temp;Humidity;BMP_temperature;BMP_pressure;BME280_temperature;BME280_humidity;BME280_pressure;Samples;Min_cycle;Max_cycle;Signal;HPM_P1;HPM_P2
2024/02/18 00:00:17;;;;;;;11.25;5.10;;;;;;;4.19;100.00;102449.94;5206191;28;20082;-75
2024/02/18 00:02:47;;;;;;;10.43;4.88;;;;;;;4.27;100.00;102453.53;5209021;28;20234;-75
2024/02/18 00:05:18;;;;;;;8.75;4.13;;;;;;;4.28;100.00;102447.50;5205720;28;20029;-75
2024/02/18 00:07:48;;;;;;;8.38;3.55;;;;;;;4.45;100.00;102456.47;5200448;28;20025;-75
2024/02/18 00:10:18;;;;;;;11.40;3.97;;;;;;;4.39;100.00;102456.38;5194182;28;20035;-75
2024/02/18 00:12:49;;;;;;;11.68;3.70;;;;;;;4.49;100.00;102458.28;5210413;28;20048;-75
2024/02/18 00:15:19;;;;;;;7.28;3.80;;;;;;;4.72;100.00;102451.81;5202978;28;20380;-75
2024/02/18 00:17:49;;;;;;;9.05;3.65;;;;;;;4.70;100.00;102443.16;5207256;28;20205;-74
2024/02/18 00:20:20;;;;;;;7.07;3.40;;;;;;;4.73;100.00;102443.22;5202171;28;20407;-75
2024/02/18 00:22:50;;;;;;;6.00;2.90;;;;;;;4.64;100.00;102444.75;5195674;28;20025;-75
2024/02/18 00:25:20;;;;;;;7.78;3.13;;;;;;;4.57;100.00;102429.94;5196479;28;20121;-75
2024/02/18 00:27:51;;;;;;;10.23;3.10;;;;;;;4.54;100.00;102429.88;5189590;28;20025;-75
2024/02/18 00:30:21;;;;;;;9.43;2.90;;;;;;;4.64;100.00;102430.09;5193561;28;20502;-75
2024/02/18 00:32:52;;;;;;;8.15;3.53;;;;;;;4.60;100.00;102420.53;5203684;28;20017;-75
2024/02/18 00:35:22;;;;;;;11.15;3.28;;;;;;;4.55;100.00;102417.00;5200864;28;20038;-75
2024/02/18 00:37:52;;;;;;;9.98;2.88;;;;;;;4.64;100.00;102417.13;5189161;28;20452;-75
2024/02/18 00:40:22;;;;;;;13.00;4.97;;;;;;;4.47;100.00;102421.13;5202769;28;20029;-75
2024/02/18 00:42:53;;;;;;;10.80;4.50;;;;;;;4.64;100.00;102409.38;5208877;28;20112;-74
2024/02/18 00:45:23;;;;;;;14.15;5.00;;;;;;;4.69;100.00;102414.63;5206125;28;20061;-75
2024/02/18 00:47:53;;;;;;;17.33;7.82;;;;;;;4.67;100.00;102406.81;5205807;28;20363;-74
2024/02/18 00:50:24;;;;;;;13.95;4.90;;;;;;;4.72;100.00;102410.38;5206816;28;20021;-75
2024/02/18 00:52:54;;;;;;;6.65;3.38;;;;;;;4.73;100.00;102409.53;5206644;28;20048;-75
2024/02/18 00:55:24;;;;;;;13.80;3.42;;;;;;;4.77;100.00;102411.34;5205330;28;20125;-75
2024/02/18 00:57:55;;;;;;;11.00;3.25;;;;;;;4.74;100.00;102413.88;5192939;28;20134;-75
2024/02/18 01:00:25;;;;;;;8.32;3.17;;;;;;;4.71;100.00;102408.66;5204350;28;20029;-75
2024/02/18 01:02:55;;;;;;;9.68;3.83;;;;;;;4.69;100.00;102412.94;5203174;28;20296;-75
2024/02/18 01:05:26;;;;;;;7.93;3.58;;;;;;;4.68;100.00;102412.88;5204129;28;20021;-75
2024/02/18 01:07:56;;;;;;;5.45;3.05;;;;;;;4.55;100.00;102414.41;5195807;28;20103;-72
2024/02/18 01:10:26;;;;;;;10.82;4.82;;;;;;;4.62;100.00;102403.28;5201607;28;20029;-75
2024/02/18 01:12:56;;;;;;;16.10;6.15;;;;;;;4.54;100.00;102410.06;5200834;28;20355;-75
2024/02/18 01:15:27;;;;;;;10.68;3.45;;;;;;;4.66;100.00;102405.09;5195748;28;20029;-74
2024/02/18 01:17:57;;;;;;;7.80;3.80;;;;;;;4.61;100.00;102396.38;5199992;28;20031;-75
2024/02/18 01:20:27;;;;;;;7.45;3.30;;;;;;;4.65;100.00;102400.75;5204999;28;20575;-75
2024/02/18 01:22:58;;;;;;;7.53;3.20;;;;;;;4.66;100.00;102386.97;5206898;28;20048;-75
2024/02/18 01:25:28;;;;;;;10.27;3.85;;;;;;;4.70;100.00;102391.38;5204649;28;20025;-75
2024/02/18 01:27:58;;;;;;;8.35;3.10;;;;;;;4.72;100.00;102384.50;5212585;28;20033;-75
2024/02/18 01:30:29;;;;;;;8.30;3.05;;;;;;;4.59;100.00;102381.66;5200144;28;20021;-76
2024/02/18 01:32:59;;;;;;;8.90;3.03;;;;;;;4.59;100.00;102377.34;5209760;28;20114;-75
2024/02/18 01:35:30;;;;;;;8.32;3.00;;;;;;;4.53;100.00;102374.66;5195918;28;20544;-75
2024/02/18 01:38:00;;;;;;;8.88;2.80;;;;;;;4.59;100.00;102371.28;5205948;28;20048;-75
2024/02/18 01:40:31;;;;;;;7.82;3.15;;;;;;;4.51;100.00;102363.41;5191642;28;20519;-75
2024/02/18 01:43:02;;;;;;;10.45;3.75;;;;;;;4.45;100.00;102370.19;5209595;28;20033;-75
2024/02/18 01:45:32;;;;;;;9.50;3.20;;;;;;;4.52;100.00;102365.16;5201471;28;20476;-74
2024/02/18 01:48:03;;;;;;;12.40;3.40;;;;;;;4.53;100.00;102361.72;5209473;28;20028;-75
2024/02/18 01:50:34;;;;;;;10.60;3.60;;;;;;;4.59;100.00;102346.28;5197170;28;20112;-75
2024/02/18 01:53:05;;;;;;;10.32;3.30;;;;;;;4.66;100.00;102344.66;5209236;28;20056;-73
2024/02/18 01:55:36;;;;;;;5.97;3.20;;;;;;;4.61;100.00;102344.59;5209282;28;20555;-75
2024/02/18 01:58:06;;;;;;;9.23;3.05;;;;;;;4.54;100.00;102342.75;5210674;28;20123;-75
2024/02/18 02:00:39;;;;;;;11.38;3.65;;;;;;;4.57;100.00;102324.69;5209811;28;20196;-76
2024/02/18 02:03:09;;;;;;;7.38;2.70;;;;;;;4.54;100.00;102331.50;5210019;28;20049;-75
2024/02/18 02:05:41;;;;;;;5.93;2.60;;;;;;;4.66;100.00;102326.53;5212450;28;20083;-76
2024/02/18 02:08:11;;;;;;;5.85;2.70;;;;;;;4.66;100.00;102316.19;5206234;28;20045;-75
2024/02/18 02:10:42;;;;;;;7.32;2.85;;;;;;;4.74;100.00;102314.56;5210464;28;20071;-75
2024/02/18 02:13:12;;;;;;;12.15;3.53;;;;;;;4.73;100.00;102316.31;5210834;28;20035;-74
2024/02/18 02:15:42;;;;;;;6.90;2.85;;;;;;;4.83;100.00;102310.41;5207483;28;20028;-75
2024/02/18 02:18:13;;;;;;;11.77;3.25;;;;;;;4.93;100.00;102301.06;5209919;28;20382;-74
2024/02/18 02:20:43;;;;;;;9.68;3.15;;;;;;;4.93;100.00;102304.53;5204314;28;20088;-76
2024/02/18 02:23:13;;;;;;;10.43;3.05;;;;;;;4.94;100.00;102293.31;5206295;28;20407;-75
2024/02/18 02:25:44;;;;;;;8.88;3.60;;;;;;;4.98;100.00;102300.28;5201660;28;20565;-76
2024/02/18 02:28:24;;;;;;;14.43;3.92;;;;;;;4.98;100.00;102308.06;5203565;28;20021;-76
2024/02/18 02:30:55;;;;;;;6.50;3.20;;;;;;;4.89;100.00;102318.28;5208830;28;20022;-75
2024/02/18 02:33:26;;;;;;;7.45;2.67;;;;;;;5.04;100.00;102315.94;5196819;28;20140;-76
2024/02/18 02:35:56;;;;;;;9.90;3.90;;;;;;;5.01;100.00;102322.78;5206113;28;20441;-76
2024/02/18 02:38:26;;;;;;;8.73;3.67;;;;;;;4.89;100.00;102326.06;5199056;28;20032;-76
2024/02/18 02:40:56;;;;;;;7.63;2.95;;;;;;;4.89;100.00;102325.19;5200438;28;20075;-76
2024/02/18 02:43:27;;;;;;;9.30;3.05;;;;;;;5.02;100.00;102316.75;5202096;28;20029;-75
2024/02/18 02:45:57;;;;;;;6.68;3.03;;;;;;;4.96;100.00;102320.13;5200745;28;20033;-76
2024/02/18 02:48:27;;;;;;;6.53;3.00;;;;;;;5.02;100.00;102316.75;5200204;28;20530;-76
2024/02/18 02:50:58;;;;;;;9.40;3.25;;;;;;;4.98;100.00;102326.19;5201211;28;20032;-76
2024/02/18 02:53:28;;;;;;;11.20;3.67;;;;;;;4.96;100.00;102314.94;5201009;28;20044;-76
2024/02/18 02:56:00;;;;;;;11.00;3.70;;;;;;;4.90;100.00;102316.56;5207235;28;20182;-76
2024/02/18 02:58:30;;;;;;;7.75;2.95;;;;;;;4.84;100.00;102321.66;5200724;28;20116;-76
2024/02/18 03:01:00;;;;;;;9.40;3.60;;;;;;;4.88;100.00;102328.63;5203777;28;20086;-76
2024/02/18 03:03:30;;;;;;;8.50;3.05;;;;;;;4.82;100.00;102321.63;5202795;28;20033;-76
2024/02/18 03:06:01;;;;;;;10.35;2.92;;;;;;;4.97;100.00;102324.44;5195810;28;20020;-76
2024/02/18 03:08:31;;;;;;;7.60;3.03;;;;;;;5.04;100.00;102318.53;5201944;28;20021;-76
2024/02/18 03:11:02;;;;;;;13.13;4.03;;;;;;;5.17;100.00;102317.81;5201403;28;20022;-76
2024/02/18 03:13:33;;;;;;;7.40;3.70;;;;;;;5.05;100.00;102312.50;5187769;28;20557;-76
2024/02/18 03:16:03;;;;;;;10.27;3.55;;;;;;;5.00;100.00;102314.13;5201943;28;20431;-76
2024/02/18 03:18:33;;;;;;;5.90;3.53;;;;;;;4.91;100.00;102321.78;5202766;28;20042;-76
2024/02/18 03:21:04;;;;;;;7.50;2.67;;;;;;;4.82;100.00;102313.84;5202890;28;20522;-76
2024/02/18 03:23:35;;;;;;;7.13;3.10;;;;;;;4.80;100.00;102320.72;5198689;28;20086;-75
2024/02/18 03:26:05;;;;;;;8.23;3.70;;;;;;;4.81;100.00;102312.13;5201804;28;20040;-75
2024/02/18 03:28:35;;;;;;;12.95;4.13;;;;;;;4.82;100.00;102311.25;5198174;28;20551;-76
2024/02/18 03:31:05;;;;;;;11.20;3.83;;;;;;;4.73;100.00;102297.31;5203119;28;20075;-75
2024/02/18 03:33:36;;;;;;;8.88;3.65;;;;;;;4.78;100.00;102301.72;5202709;28;20031;-76
2024/02/18 03:36:06;;;;;;;7.57;3.25;;;;;;;4.82;100.00;102294.88;5200825;28;20034;-76
2024/02/18 03:38:37;;;;;;;12.50;3.78;;;;;;;4.67;100.00;102282.53;5203344;28;20048;-75
2024/02/18 03:41:08;;;;;;;8.10;3.65;;;;;;;4.70;100.00;102292.06;5204264;28;20068;-76
2024/02/18 03:43:39;;;;;;;7.53;4.03;;;;;;;4.67;100.00;102289.44;5205640;28;20033;-76
2024/02/18 03:46:10;;;;;;;10.05;3.60;;;;;;;4.64;100.00;102290.25;5202312;28;20108;-76
2024/02/18 03:48:40;;;;;;;8.52;3.92;;;;;;;4.63;100.00;102282.50;5202046;28;20111;-76
2024/02/18 03:51:10;;;;;;;10.48;4.30;;;;;;;4.66;100.00;102275.63;5203621;28;20028;-76
2024/02/18 03:53:41;;;;;;;6.75;3.70;;;;;;;4.71;100.00;102279.16;5200238;28;20025;-76
2024/02/18 03:56:11;;;;;;;10.88;4.07;;;;;;;4.62;100.00;102283.34;5204709;28;20100;-75
2024/02/18 03:58:41;;;;;;;8.35;3.90;;;;;;;4.41;100.00;102282.97;5192140;28;20036;-76
2024/02/18 04:01:12;;;;;;;8.63;4.10;;;;;;;4.41;100.00;102276.09;5208214;28;20055;-75
2024/02/18 04:03:43;;;;;;;10.35;4.18;;;;;;;4.40;100.00;102276.06;5202328;28;20073;-76
2024/02/18 04:06:13;;;;;;;10.18;4.25;;;;;;;4.43;100.00;102274.41;5202716;28;20506;-75
2024/02/18 04:08:44;;;;;;;11.93;4.35;;;;;;;4.40;100.00;102266.59;5195913;28;20024;-75
2024/02/18 04:11:14;;;;;;;9.95;4.15;;;;;;;4.40;100.00;102269.16;5205508;28;20017;-74
2024/02/18 04:13:44;;;;;;;12.23;4.78;;;;;;;4.41;100.00;102268.31;5204967;28;20091;-75
2024/02/18 04:16:14;;;;;;;10.88;4.10;;;;;;;4.46;100.00;102261.50;5194983;28;20029;-75
2024/02/18 04:18:45;;;;;;;8.60;4.60;;;;;;;4.48;100.00;102254.63;5193693;28;20123;-76
2024/02/18 04:21:15;;;;;;;10.13;4.20;;;;;;;4.52;100.00;102260.72;5203977;28;20027;-76
2024/02/18 04:23:46;;;;;;;9.10;4.22;;;;;;;4.54;100.00;102253.84;5208652;28;20021;-76
2024/02/18 04:26:17;;;;;;;8.65;4.03;;;;;;;4.55;100.00;102259.06;5204912;28;20036;-76
2024/02/18 04:28:47;;;;;;;9.15;4.40;;;;;;;4.49;100.00;102253.78;5190672;28;20060;-76
2024/02/18 04:31:17;;;;;;;15.52;4.63;;;;;;;4.54;100.00;102253.84;5206874;28;20483;-76
2024/02/18 04:33:47;;;;;;;14.48;4.35;;;;;;;4.42;100.00;102253.66;5190333;28;20029;-75
2024/02/18 04:36:18;;;;;;;14.70;3.95;;;;;;;4.40;100.00;102256.22;5201780;28;20029;-76
2024/02/18 04:38:48;;;;;;;9.70;4.05;;;;;;;4.53;100.00;102247.81;5189367;28;20021;-75
2024/02/18 04:41:21;;;;;;;10.32;3.85;;;;;;;4.45;100.00;102253.72;5200321;28;20052;-76
2024/02/18 04:43:51;;;;;;;10.68;4.57;;;;;;;4.51;100.00;102244.34;5203197;28;20025;-75
2024/02/18 04:46:21;;;;;;;8.60;4.25;;;;;;;4.56;100.00;102247.84;5201669;28;20292;-76
2024/02/18 04:48:53;;;;;;;12.20;4.53;;;;;;;4.76;100.00;102246.44;5192166;28;20029;-76
2024/02/18 04:51:23;;;;;;;11.77;4.47;;;;;;;4.67;100.00;102241.09;5208243;28;20029;-76
2024/02/18 04:53:53;;;;;;;12.52;4.43;;;;;;;4.61;100.00;102235.84;5210397;28;20464;-76
2024/02/18 04:56:23;;;;;;;10.60;4.53;;;;;;;4.64;100.00;102229.84;5208539;28;20525;-76
2024/02/18 04:58:54;;;;;;;8.57;4.22;;;;;;;4.57;100.00;102234.06;5209402;28;20039;-75
2024/02/18 05:01:24;;;;;;;12.25;5.95;;;;;;;4.63;100.00;102220.34;5210208;28;20438;-76
2024/02/18 05:03:55;;;;;;;7.38;4.43;;;;;;;4.79;100.00;102224.91;5209938;28;20037;-76
2024/02/18 05:06:25;;;;;;;9.77;4.50;;;;;;;4.75;100.00;102212.72;5196966;28;20116;-76
2024/02/18 05:08:55;;;;;;;12.82;4.47;;;;;;;4.89;100.00;102222.47;5209772;28;20025;-76
2024/02/18 05:11:25;;;;;;;9.75;4.50;;;;;;;4.71;100.00;102219.63;5205429;28;20087;-76
2024/02/18 05:13:56;;;;;;;11.60;4.30;;;;;;;4.73;100.00;102215.31;5197015;28;20029;-76
2024/02/18 05:16:26;;;;;;;8.40;4.35;;;;;;;4.95;100.00;102201.81;5205694;28;20108;-74
2024/02/18 05:18:56;;;;;;;11.13;4.50;;;;;;;4.89;100.00;102195.66;5206983;28;20644;-76
2024/02/18 05:21:26;;;;;;;9.30;4.20;;;;;;;4.81;100.00;102189.53;5207933;28;20029;-76
2024/02/18 05:23:57;;;;;;;9.30;4.20;;;;;;;4.76;100.00;102189.47;5208664;28;20509;-76
2024/02/18 05:26:29;;;;;;;8.60;3.90;;;;;;;4.81;100.00;102197.31;5206468;28;20029;-75
2024/02/18 05:28:59;;;;;;;11.98;4.40;;;;;;;4.77;100.00;102191.19;5207446;28;20522;-76
2024/02/18 05:31:30;;;;;;;12.63;4.60;;;;;;;4.84;100.00;102186.97;5210407;28;20025;-76
2024/02/18 05:34:00;;;;;;;12.45;4.20;;;;;;;4.77;100.00;102191.19;5205299;28;20029;-76
2024/02/18 05:36:31;;;;;;;9.40;4.47;;;;;;;4.93;100.00;102187.97;5207675;28;20131;-76
2024/02/18 05:39:01;;;;;;;12.70;4.80;;;;;;;4.82;100.00;102184.34;5208818;28;20124;-76
2024/02/18 05:41:32;;;;;;;11.40;5.20;;;;;;;4.99;100.00;102180.25;5205904;28;20025;-76
2024/02/18 05:44:03;;;;;;;10.20;5.25;;;;;;;5.10;100.00;102181.28;5211253;28;20036;-76
2024/02/18 05:46:33;;;;;;;9.73;5.30;;;;;;;5.00;100.00;102181.16;5197401;28;20248;-75
2024/02/18 05:49:04;;;;;;;14.45;5.10;;;;;;;5.14;100.00;102177.84;5195273;28;20040;-76
2024/02/18 05:51:35;;;;;;;12.32;5.18;;;;;;;5.16;100.00;102173.56;5206316;28;20025;-75
2024/02/18 05:54:05;;;;;;;11.90;5.72;;;;;;;5.21;100.00;102166.75;5210630;28;20083;-75
2024/02/18 05:56:35;;;;;;;10.48;5.15;;;;;;;5.29;100.00;102166.81;5208481;28;20095;-75
2024/02/18 05:59:05;;;;;;;11.13;5.25;;;;;;;5.11;100.00;102167.47;5210953;28;20061;-76
2024/02/18 06:01:36;;;;;;;17.02;6.28;;;;;;;5.04;100.00;102176.03;5195594;28;20037;-76
2024/02/18 06:04:06;;;;;;;11.98;5.85;;;;;;;5.05;100.00;102167.41;5207352;28;20472;-76
2024/02/18 06:06:36;;;;;;;11.02;5.60;;;;;;;5.18;100.00;102166.66;5209054;28;20033;-73
2024/02/18 06:09:07;;;;;;;12.30;6.15;;;;;;;5.23;100.00;102158.97;5209799;28;20033;-76
2024/02/18 06:11:37;;;;;;;13.32;6.05;;;;;;;5.27;100.00;102158.13;5213067;28;20029;-76
2024/02/18 06:14:07;;;;;;;11.15;6.05;;;;;;;5.20;100.00;102151.16;5206859;28;20053;-76
2024/02/18 06:16:37;;;;;;;13.05;6.07;;;;;;;5.25;100.00;102158.13;5208590;28;20412;-75
2024/02/18 06:19:08;;;;;;;11.85;6.07;;;;;;;5.26;100.00;102154.69;5207357;28;20029;-76
2024/02/18 06:21:38;;;;;;;11.13;5.90;;;;;;;5.28;100.00;102158.16;5207267;28;20494;-73
2024/02/18 06:24:08;;;;;;;14.55;6.25;;;;;;;5.27;100.00;102145.16;5196876;28;20024;-76
2024/02/18 06:26:40;;;;;;;12.98;6.43;;;;;;;5.39;100.00;102154.81;5193228;28;20033;-75
2024/02/18 06:29:10;;;;;;;12.90;6.30;;;;;;;5.48;100.00;102143.69;5199288;28;20127;-76
2024/02/18 06:31:40;;;;;;;16.25;6.80;;;;;;;5.47;100.00;102147.13;5209842;28;20108;-76
2024/02/18 06:34:11;;;;;;;15.07;6.50;;;;;;;5.56;100.00;102142.06;5206583;28;20033;-75
2024/02/18 06:36:42;;;;;;;16.95;7.07;;;;;;;5.45;100.00;102147.13;5210913;28;20494;-76
2024/02/18 06:39:12;;;;;;;13.55;6.75;;;;;;;5.53;100.00;102144.59;5195556;28;20129;-76
2024/02/18 06:41:42;;;;;;;15.25;7.10;;;;;;;5.53;100.00;102148.06;5212194;28;20039;-76
2024/02/18 06:44:12;;;;;;;14.05;7.15;;;;;;;5.66;100.00;102144.75;5208169;28;20171;-76
2024/02/18 06:46:43;;;;;;;16.10;7.53;;;;;;;5.72;100.00;102137.00;5208003;28;20036;-76
2024/02/18 06:49:13;;;;;;;19.25;7.70;;;;;;;5.72;100.00;102138.75;5194120;28;20033;-76
2024/02/18 06:51:43;;;;;;;17.75;7.55;;;;;;;5.81;100.00;102136.25;5197791;28;20032;-76
2024/02/18 06:54:14;;;;;;;19.13;7.30;;;;;;;5.80;100.00;102134.53;5208884;28;20428;-76
2024/02/18 06:56:44;;;;;;;16.80;7.18;;;;;;;5.92;100.00;102127.69;5207931;28;20123;-76
2024/02/18 06:59:15;;;;;;;16.13;7.75;;;;;;;5.99;100.00;102129.50;5205257;28;20029;-76
2024/02/18 07:01:47;;;;;;;13.30;7.40;;;;;;;6.04;100.00;102124.31;5209534;28;20029;-76
2024/02/18 07:04:17;;;;;;;14.85;7.43;;;;;;;6.03;100.00;102130.38;5213034;28;20155;-74
2024/02/18 07:06:47;;;;;;;17.00;7.97;;;;;;;6.06;100.00;102120.03;5211044;28;20039;-76
2024/02/18 07:09:17;;;;;;;13.50;7.50;;;;;;;6.05;100.00;102118.31;5211070;28;20118;-75
2024/02/18 07:11:48;;;;;;;18.33;8.27;;;;;;;6.18;100.00;102114.91;5205537;28;20021;-76
2024/02/18 07:14:19;;;;;;;15.32;7.82;;;;;;;6.27;100.00;102107.19;5205316;28;20499;-76
2024/02/18 07:16:50;;;;;;;16.33;7.95;;;;;;;6.39;100.00;102105.53;5188546;28;20029;-76
2024/02/18 07:19:20;;;;;;;16.52;7.60;;;;;;;6.42;100.00;102099.50;5205291;28;20032;-76
2024/02/18 07:21:50;;;;;;;15.15;7.85;;;;;;;6.30;100.00;102105.50;5202809;28;20098;-76
2024/02/18 07:24:21;;;;;;;16.02;8.27;;;;;;;6.39;100.00;102102.09;5205265;28;20276;-76
2024/02/18 07:26:51;;;;;;;19.70;7.82;;;;;;;6.48;100.00;102096.94;5207369;28;20109;-76
2024/02/18 07:29:21;;;;;;;16.15;8.50;;;;;;;6.56;100.00;102090.91;5205415;28;20025;-76
2024/02/18 07:31:51;;;;;;;17.15;8.73;;;;;;;6.67;100.00;102084.06;5190313;28;20026;-76
2024/02/18 07:34:22;;;;;;;17.70;8.43;;;;;;;6.72;100.00;102082.34;5201945;28;20041;-76
2024/02/18 07:36:54;;;;;;;18.25;8.30;;;;;;;6.80;100.00;102077.16;5201914;28;20049;-76
2024/02/18 07:39:24;;;;;;;19.02;8.52;;;;;;;6.84;100.00;102082.38;5200699;28;20438;-76
2024/02/18 07:41:55;;;;;;;15.88;8.13;;;;;;;6.85;100.00;102072.84;5203217;28;20079;-76
2024/02/18 07:44:25;;;;;;;15.57;7.57;;;;;;;6.94;100.00;102075.50;5202820;28;20018;-76
2024/02/18 07:46:57;;;;;;;16.02;8.43;;;;;;;7.00;100.00;102075.50;5203135;28;20032;-76
2024/02/18 07:49:27;;;;;;;13.77;7.72;;;;;;;7.04;100.00;102072.03;5203406;28;20029;-76
2024/02/18 07:51:57;;;;;;;21.05;8.32;;;;;;;7.07;100.00;102072.06;5187286;28;20025;-76
2024/02/18 07:54:28;;;;;;;15.55;8.02;;;;;;;7.10;100.00;102070.31;5202006;28;20114;-76
2024/02/18 07:56:58;;;;;;;18.25;8.45;;;;;;;7.25;100.00;102066.91;5202716;28;20498;-76
2024/02/18 07:59:28;;;;;;;16.48;8.48;;;;;;;7.28;100.00;102060.84;5203176;28;20065;-76
2024/02/18 08:01:59;;;;;;;20.08;8.82;;;;;;;7.29;100.00;102059.09;5193077;28;20126;-76
2024/02/18 08:04:29;;;;;;;19.02;9.20;;;;;;;7.39;100.00;102051.28;5205354;28;20352;-76
2024/02/18 08:06:59;;;;;;;18.35;8.35;;;;;;;7.40;100.00;102055.66;5210065;28;20494;-76
2024/02/18 08:09:30;;;;;;;18.40;8.52;;;;;;;7.52;100.00;102047.00;5199070;28;20079;-76
2024/02/18 08:12:00;;;;;;;16.35;8.48;;;;;;;7.61;100.00;102042.66;5212758;28;20076;-76
2024/02/18 08:14:30;;;;;;;16.63;8.60;;;;;;;7.57;100.00;102043.53;5196091;28;20047;-76
2024/02/18 08:17:00;;;;;;;21.02;9.25;;;;;;;7.73;100.00;102042.63;5205909;28;20842;-76
2024/02/18 08:19:31;;;;;;;20.55;9.38;;;;;;;7.81;100.00;102040.91;5207781;28;20156;-76
2024/02/18 08:22:01;;;;;;;18.85;9.27;;;;;;;7.87;100.00;102037.44;5210171;28;20035;-76
2024/02/18 08:24:32;;;;;;;19.30;9.57;;;;;;;8.05;100.00;102025.22;5213225;28;20035;-76
2024/02/18 08:27:02;;;;;;;20.05;9.45;;;;;;;8.06;100.00;102024.34;5211437;28;20025;-76
2024/02/18 08:29:32;;;;;;;18.17;9.25;;;;;;;8.10;100.00;102023.50;5210729;28;20029;-76
2024/02/18 08:32:03;;;;;;;23.27;10.32;;;;;;;8.14;100.00;102013.94;5206661;28;20029;-77
2024/02/18 08:34:34;;;;;;;20.55;10.30;;;;;;;8.26;100.00;102011.34;5205304;28;20499;-76
2024/02/18 08:37:04;;;;;;;17.45;9.63;;;;;;;8.30;100.00;102006.13;5202805;28;20446;-74
2024/02/18 08:39:35;;;;;;;20.70;10.18;;;;;;;8.39;100.00;101994.78;5202240;28;20021;-76
2024/02/18 08:42:05;;;;;;;20.33;9.93;;;;;;;8.48;100.00;101990.41;5198280;28;20393;-75
2024/02/18 08:44:36;;;;;;;20.80;9.60;;;;;;;8.60;100.00;101995.56;5215509;28;20246;-76
2024/02/18 08:47:06;;;;;;;20.15;10.00;;;;;;;8.68;100.00;101993.78;5206473;28;20087;-76
2024/02/18 08:49:36;;;;;;;18.85;9.98;;;;;;;8.60;100.00;101985.16;5200023;28;20990;-76
2024/02/18 08:52:07;;;;;;;17.77;9.48;;;;;;;8.74;100.00;101975.50;5192194;28;20367;-76
2024/02/18 08:54:37;;;;;;;19.05;9.00;;;;;;;8.90;100.00;101966.69;5214435;28;20025;-77
2024/02/18 08:57:07;;;;;;;19.98;9.55;;;;;;;9.00;100.00;101970.09;5206272;28;20065;-76
2024/02/18 08:59:38;;;;;;;19.30;9.75;;;;;;;9.10;100.00;101963.97;5197807;28;20440;-76
2024/02/18 09:02:08;;;;;;;16.67;8.70;;;;;;;9.35;100.00;101966.38;5202933;28;20793;-76
2024/02/18 09:04:39;;;;;;;20.02;9.65;;;;;;;9.46;100.00;101957.56;5206252;28;20068;-76
2024/02/18 09:07:10;;;;;;;24.65;10.23;;;;;;;9.71;100.00;101953.84;5205384;28;20031;-75
2024/02/18 09:09:40;;;;;;;17.85;9.43;;;;;;;9.75;100.00;101954.66;5202829;28;20060;-76
2024/02/18 09:12:10;;;;;;;18.15;9.43;;;;;;;9.68;100.00;101948.66;5212730;28;20041;-76
2024/02/18 09:14:41;;;;;;;18.13;9.13;;;;;;;9.61;100.00;101939.16;5201722;28;20075;-76
2024/02/18 09:17:11;;;;;;;20.30;9.80;;;;;;;9.82;100.00;101943.31;5198998;28;20041;-76
2024/02/18 09:19:42;;;;;;;16.42;8.82;;;;;;;9.87;100.00;101944.09;5210106;28;20481;-76
2024/02/18 09:22:12;;;;;;;18.30;9.10;;;;;;;9.91;100.00;101932.75;5207117;28;20124;-76
2024/02/18 09:24:43;;;;;;;18.38;8.95;;;;;;;9.95;100.00;101932.69;5212000;28;20570;-77
2024/02/18 09:27:13;;;;;;;15.73;8.95;;;;;;;9.93;100.00;101931.84;5198614;28;20124;-76
2024/02/18 09:29:43;;;;;;;17.33;9.32;;;;;;;10.08;100.00;101925.59;5210215;28;20033;-76
2024/02/18 09:32:14;;;;;;;17.70;9.07;;;;;;;10.12;100.00;101924.69;5210669;28;20486;-76
2024/02/18 09:34:44;;;;;;;18.00;8.90;;;;;;;10.20;100.00;101928.09;5204637;28;20048;-76
2024/02/18 09:37:15;;;;;;;16.75;8.57;;;;;;;10.34;100.00;101916.56;5199766;28;20025;-76
2024/02/18 09:39:45;;;;;;;19.08;9.25;;;;;;;10.39;100.00;101919.13;5195520;28;20576;-76
2024/02/18 09:42:16;;;;;;;15.82;8.95;;;;;;;10.53;100.00;101917.19;5200327;28;20025;-77
2024/02/18 09:44:46;;;;;;;15.73;8.02;;;;;;;10.54;100.00;101911.06;5199179;28;20037;-76
2024/02/18 09:47:19;;;;;;;15.90;8.38;;;;;;;10.64;100.00;101912.66;5193912;28;20046;-76
2024/02/18 09:49:49;;;;;;;15.05;8.38;;;;;;;10.75;100.00;101908.13;5199018;28;20056;-76
2024/02/18 09:52:21;;;;;;;17.05;8.55;;;;;;;10.83;100.00;101911.53;5198648;28;20132;-75
2024/02/18 09:54:52;;;;;;;18.25;8.35;;;;;;;10.87;100.00;101907.97;5199596;28;20018;-76
2024/02/18 09:57:22;;;;;;;17.20;9.20;;;;;;;10.85;100.00;101905.34;5198351;28;20073;-74
2024/02/18 09:59:53;;;;;;;15.23;8.43;;;;;;;10.86;100.00;101903.63;5196767;28;20049;-76
2024/02/18 10:02:25;;;;;;;14.68;8.40;;;;;;;10.82;100.00;101904.56;5179703;28;20041;-76
2024/02/18 10:04:55;;;;;;;16.40;7.78;;;;;;;10.79;100.00;101894.13;5196003;28;20529;-76
2024/02/18 10:07:26;;;;;;;13.00;7.93;;;;;;;10.62;100.00;101885.66;5198142;28;20040;-75
2024/02/18 10:09:58;;;;;;;15.55;8.27;;;;;;;10.73;100.00;101886.38;5201003;28;20060;-76
2024/02/18 10:12:30;;;;;;;16.70;8.32;;;;;;;10.77;100.00;101881.09;5197465;28;20091;-75
2024/02/18 10:15:03;;;;;;;16.90;8.23;;;;;;;10.80;100.00;101878.41;5193332;28;20403;-75
2024/02/18 10:17:34;;;;;;;14.27;8.00;;;;;;;10.97;100.00;101873.78;5196769;28;20054;-76
2024/02/18 10:20:05;;;;;;;16.45;8.35;;;;;;;10.91;100.00;101867.78;5201241;28;20037;-76
2024/02/18 10:22:35;;;;;;;21.90;8.52;;;;;;;11.09;100.00;101866.59;5190999;28;20040;-76
2024/02/18 10:25:07;;;;;;;18.02;7.95;;;;;;;11.17;100.00;101858.59;5199874;28;20078;-75
2024/02/18 10:27:39;;;;;;;14.45;8.00;;;;;;;11.25;100.00;101854.97;5200059;28;20057;-76
2024/02/18 10:30:11;;;;;;;13.57;7.32;;;;;;;11.27;100.00;101852.31;5185339;28;20034;-76
2024/02/18 10:32:41;;;;;;;16.77;7.70;;;;;;;11.40;99.30;101838.09;5203546;28;20418;-75
2024/02/18 10:35:12;;;;;;;13.63;7.20;;;;;;;11.48;99.59;101838.84;5199947;28;20032;-76
2024/02/18 10:37:42;;;;;;;15.07;8.00;;;;;;;11.49;98.64;101832.72;5196298;28;20588;-76
2024/02/18 10:40:27;;;;;;;11.65;6.68;;;;;;;11.50;98.24;101835.31;5202659;28;20068;-76
2024/02/18 10:43:02;;;;;;;15.75;7.03;;;;;;;11.67;98.85;101833.25;5197138;28;20603;-76
2024/02/18 10:45:34;;;;;;;13.77;7.25;;;;;;;11.61;97.18;101828.13;5183803;28;20033;-75
2024/02/18 10:48:08;;;;;;;11.07;6.70;;;;;;;11.79;96.75;101830.38;5186715;28;20041;-75
2024/02/18 10:50:45;;;;;;;12.20;6.68;;;;;;;11.92;96.33;101808.28;5200446;28;20155;-76
2024/02/18 10:53:29;;;;;;;13.77;7.15;;;;;;;12.07;95.71;101813.19;5190748;28;20033;-75
2024/02/18 10:56:12;;;;;;;10.95;6.53;;;;;;;12.23;96.82;101816.31;5197571;28;20040;-76
2024/02/18 10:59:03;;;;;;;14.82;6.53;;;;;;;12.43;94.59;101804.47;5199780;28;20398;-76
2024/02/18 11:01:42;;;;;;;13.10;6.75;;;;;;;12.61;96.70;101796.16;5197824;28;20038;-76
2024/02/18 11:04:13;;;;;;;11.60;6.90;;;;;;;12.76;95.95;101784.44;5198523;28;20032;-76
2024/02/18 11:06:44;;;;;;;11.15;6.53;;;;;;;12.95;94.52;101786.59;5198370;28;20390;-76
2024/02/18 11:09:17;;;;;;;11.55;6.55;;;;;;;13.01;94.57;101775.91;5198664;28;20466;-76
2024/02/18 11:11:48;;;;;;;10.52;5.82;;;;;;;12.98;94.85;101775.16;5186721;28;20033;-76
2024/02/18 11:14:19;;;;;;;12.55;6.35;;;;;;;13.12;92.23;101766.88;5186190;28;20045;-75
2024/02/18 11:16:52;;;;;;;10.23;5.72;;;;;;;13.05;90.32;101762.69;5182271;28;20572;-76
2024/02/18 11:19:23;;;;;;;9.05;5.38;;;;;;;13.05;90.00;101761.84;5194153;28;20045;-76
2024/02/18 11:21:54;;;;;;;10.68;5.97;;;;;;;13.19;90.55;101754.44;5195887;28;20056;-76
2024/02/18 11:24:25;;;;;;;11.77;5.95;;;;;;;13.05;91.38;101751.34;5197024;28;20068;-75
2024/02/18 11:26:55;;;;;;;10.32;5.63;;;;;;;13.12;91.49;101737.13;5194887;28;20564;-76
2024/02/18 11:29:25;;;;;;;11.70;5.80;;;;;;;13.09;91.55;101737.22;5192497;28;20036;-75
2024/02/18 11:31:56;;;;;;;9.45;5.65;;;;;;;13.11;92.62;101731.03;5194685;28;20044;-76
2024/02/18 11:34:26;;;;;;;10.05;6.13;;;;;;;13.12;92.22;101729.25;5191682;28;20041;-76